Time;durP1;ratioP1;P1;durP2;ratioP2;P2;SDS_P1;SDS_P2;PMS_P1;PMS_P2;Temp;Humidity;BMP_temperature;BMP_pressure;BME280_temperature;BME280_humidity;BME280_pressure;Samples;Min_cycle;Max_cycle;Signal;HPM_P1;HPM_P2
2022/04/22 00:01:16;;;;;;;10.20;5.43;;;;;;;11.09;57.60;100842.22;5031981;28;20030;-81
2022/04/22 00:03:42;;;;;;;13.30;5.78;;;;;;;11.05;57.90;100841.41;5013855;28;20068;-81
2022/04/22 00:06:08;;;;;;;11.60;5.63;;;;;;;11.02;57.96;100835.31;5013780;28;20401;-81
2022/04/22 00:08:34;;;;;;;8.25;5.57;;;;;;;11.01;57.92;100834.44;5014106;28;20049;-81
2022/04/22 00:13:44;;;;;;;11.90;5.60;;;;;;;10.95;58.00;100832.81;5030475;28;20056;-81
2022/04/22 00:16:10;;;;;;;7.78;5.00;;;;;;;10.92;58.29;100832.88;5031419;28;20109;-81
2022/04/22 00:18:36;;;;;;;13.85;5.75;;;;;;;10.90;58.41;100834.69;5030183;28;20060;-81
2022/04/22 00:21:01;;;;;;;9.93;5.82;;;;;;;10.86;58.80;100826.88;5013037;28;20201;-81
2022/04/22 00:23:27;;;;;;;8.32;5.88;;;;;;;10.83;58.73;100830.47;5029516;28;20155;-81
2022/04/22 00:25:58;;;;;;;9.45;5.50;;;;;;;10.79;59.08;100826.13;5031739;28;20051;-81
2022/04/22 00:28:23;;;;;;;10.55;6.22;;;;;;;10.74;59.42;100826.22;5036243;28;20083;-81
2022/04/22 00:30:49;;;;;;;14.13;5.93;;;;;;;10.69;59.36;100824.59;5033022;28;20098;-81
2022/04/22 00:33:15;;;;;;;9.68;6.40;;;;;;;10.65;59.52;100825.56;5028787;28;20029;-81
2022/04/22 00:35:40;;;;;;;12.00;5.75;;;;;;;10.66;60.07;100822.91;5030997;28;20045;-81
2022/04/22 00:38:06;;;;;;;8.52;6.10;;;;;;;10.62;59.72;100826.50;5030317;28;20061;-81
2022/04/22 00:40:32;;;;;;;12.35;6.22;;;;;;;10.61;60.20;100827.41;5030767;28;20109;-81
2022/04/22 00:42:58;;;;;;;10.57;6.45;;;;;;;10.59;60.38;100820.41;5028147;28;20103;-81
2022/04/22 00:45:23;;;;;;;8.40;6.00;;;;;;;10.57;60.50;100820.44;5049354;28;20025;-81
2022/04/22 00:47:49;;;;;;;12.15;6.97;;;;;;;10.54;60.57;100817.88;5051033;28;20040;-81
2022/04/22 00:50:14;;;;;;;10.68;6.38;;;;;;;10.54;60.94;100812.56;5049776;28;20044;-81
2022/04/22 00:52:40;;;;;;;11.45;6.38;;;;;;;10.51;61.20;100817.94;5050937;28;20384;-81
2022/04/22 00:55:08;;;;;;;12.68;6.30;;;;;;;10.45;61.19;100807.47;5015155;28;20086;-81
2022/04/22 00:57:33;;;;;;;13.90;6.88;;;;;;;10.44;61.15;100806.59;5031050;28;20049;-81
2022/04/22 00:59:59;;;;;;;12.52;6.45;;;;;;;10.43;61.46;100811.91;5013212;28;20467;-81
2022/04/22 01:02:25;;;;;;;11.65;6.43;;;;;;;10.38;61.73;100808.50;5029622;28;20053;-81
2022/04/22 01:10:19;;;;;;;10.38;6.70;;;;;;;10.27;62.08;100801.63;5028540;28;20053;-81
2022/04/22 01:12:44;;;;;;;19.48;7.00;;;;;;;10.25;62.38;100800.78;5028696;28;20073;-81
2022/04/22 01:15:10;;;;;;;15.38;7.47;;;;;;;10.23;62.96;100793.78;5029103;28;20124;-81
2022/04/22 01:17:36;;;;;;;13.88;7.20;;;;;;;10.19;62.69;100794.75;5029127;28;20099;-81
2022/04/22 01:20:03;;;;;;;14.45;7.38;;;;;;;10.16;63.29;100795.69;5030821;28;20440;-81
2022/04/22 01:22:28;;;;;;;16.75;6.90;;;;;;;10.13;63.40;100791.31;5028962;28;20040;-81
2022/04/22 01:24:58;;;;;;;10.35;7.32;;;;;;;10.11;63.52;100792.25;5012494;28;20038;-81
2022/04/22 01:27:27;;;;;;;11.13;7.20;;;;;;;10.08;63.79;100782.63;5031489;28;20458;-81
2022/04/22 01:29:53;;;;;;;16.08;8.35;;;;;;;10.07;64.10;100788.81;5049417;28;20032;-81
2022/04/22 01:32:18;;;;;;;11.73;7.20;;;;;;;10.05;63.91;100782.69;5043281;28;20033;-81
2022/04/22 01:34:44;;;;;;;12.55;7.47;;;;;;;10.04;64.53;100778.31;5029492;28;20374;-81
2022/04/22 01:37:09;;;;;;;13.63;7.65;;;;;;;10.02;64.68;100784.53;4996026;28;20037;-81
2022/04/22 01:39:36;;;;;;;11.75;7.57;;;;;;;9.99;64.27;100772.25;4996523;28;20041;-81
2022/04/22 01:42:01;;;;;;;14.10;7.70;;;;;;;9.96;64.68;100777.56;5012563;28;20037;-81
2022/04/22 01:44:28;;;;;;;12.25;7.50;;;;;;;9.95;65.10;100767.03;5035134;28;20037;-82
2022/04/22 01:46:54;;;;;;;11.85;7.22;;;;;;;9.94;64.42;100775.88;5032148;28;20033;-82
2022/04/22 01:49:19;;;;;;;12.10;7.47;;;;;;;9.92;64.60;100770.63;5052802;28;20333;-82
2022/04/22 01:51:45;;;;;;;13.40;7.90;;;;;;;9.89;64.95;100779.50;5050998;28;20555;-82
2022/04/22 01:54:11;;;;;;;14.95;6.85;;;;;;;9.85;65.26;100780.44;5034889;28;20037;-81
2022/04/22 01:56:36;;;;;;;11.52;7.40;;;;;;;9.84;65.30;100781.34;5032097;28;20081;-82
2022/04/22 01:59:02;;;;;;;11.20;7.63;;;;;;;9.81;65.37;100777.88;5032384;28;20139;-82
2022/04/22 02:01:29;;;;;;;9.95;7.65;;;;;;;9.78;65.64;100778.81;5030966;28;20032;-82
2022/04/22 02:03:55;;;;;;;16.83;7.95;;;;;;;9.74;65.09;100774.47;5015807;28;20042;-82
2022/04/22 02:06:20;;;;;;;12.45;8.15;;;;;;;9.72;66.18;100765.72;5033375;28;20103;-84
2022/04/22 02:08:45;;;;;;;10.70;7.95;;;;;;;9.71;65.51;100773.69;5015482;28;20049;-82
2022/04/22 02:11:11;;;;;;;14.13;7.72;;;;;;;9.68;66.39;100778.13;5015731;28;20137;-82
2022/04/22 02:13:36;;;;;;;14.02;7.93;;;;;;;9.66;66.54;100769.34;5015642;28;20041;-82
2022/04/22 02:16:06;;;;;;;12.63;7.57;;;;;;;9.66;65.99;100773.78;5033453;28;20052;-82
2022/04/22 02:18:36;;;;;;;13.88;8.05;;;;;;;9.64;66.48;100778.22;5032870;28;20072;-82
2022/04/22 02:21:04;;;;;;;10.18;7.75;;;;;;;9.59;67.13;100774.78;5016939;28;20033;-81
2022/04/22 02:23:29;;;;;;;12.48;8.15;;;;;;;9.57;67.33;100785.41;5016683;28;20041;-82
2022/04/22 02:25:55;;;;;;;16.50;7.70;;;;;;;9.54;66.09;100777.50;5035470;28;20087;-81
2022/04/22 02:28:33;;;;;;;20.63;8.52;;;;;;;9.52;67.06;100776.69;5035690;28;20041;-82
2022/04/22 02:31:09;;;;;;;11.82;8.45;;;;;;;9.51;66.97;100774.06;5023041;28;20489;-82
2022/04/22 02:33:40;;;;;;;13.48;8.38;;;;;;;9.49;67.60;100771.44;5023043;28;20107;-82
2022/04/22 02:36:06;;;;;;;11.70;8.18;;;;;;;9.49;67.51;100771.44;5016297;28;20048;-82
2022/04/22 02:38:33;;;;;;;11.52;8.55;;;;;;;9.46;67.23;100767.06;5032521;28;20105;-82
2022/04/22 02:46:28;;;;;;;12.60;8.60;;;;;;;9.38;68.14;100766.34;5033736;28;20048;-82
2022/04/22 02:48:58;;;;;;;13.80;8.85;;;;;;;9.36;67.98;100768.16;5032557;28;20043;-82
2022/04/22 02:51:24;;;;;;;12.05;8.75;;;;;;;9.34;68.50;100751.44;5032735;28;20705;-82
2022/04/22 02:53:50;;;;;;;13.70;9.30;;;;;;;9.31;68.98;100758.56;5032529;28;20025;-82
2022/04/22 02:56:21;;;;;;;12.25;8.73;;;;;;;9.28;68.62;100745.41;5039356;28;20065;-82
2022/04/22 02:58:47;;;;;;;15.63;9.75;;;;;;;9.29;68.61;100752.44;5031798;28;20096;-82
2022/04/22 03:01:14;;;;;;;19.15;9.43;;;;;;;9.25;68.82;100747.22;5031352;28;20045;-81
2022/04/22 03:03:42;;;;;;;15.40;8.90;;;;;;;9.23;68.57;100748.13;5032028;28;20377;-82
2022/04/22 03:06:08;;;;;;;14.90;9.43;;;;;;;9.22;68.30;100749.91;5032803;28;20436;-82
2022/04/22 03:08:34;;;;;;;12.63;9.27;;;;;;;9.19;68.51;100741.16;5033208;28;20030;-82
2022/04/22 03:11:00;;;;;;;12.27;9.20;;;;;;;9.18;69.23;100745.56;5032084;28;20041;-82
2022/04/22 03:13:26;;;;;;;14.90;9.15;;;;;;;9.15;69.59;100734.16;5031588;28;20049;-82
2022/04/22 03:15:52;;;;;;;16.52;10.60;;;;;;;9.13;69.17;100743.91;5032982;28;20030;-82
2022/04/22 03:18:19;;;;;;;13.43;9.27;;;;;;;9.08;69.19;100736.06;5031814;28;20038;-82
2022/04/22 03:20:45;;;;;;;14.88;9.93;;;;;;;9.07;69.13;100739.59;5031925;28;20101;-82
2022/04/22 03:23:10;;;;;;;14.40;9.63;;;;;;;9.06;69.70;100744.91;5016073;28;20091;-82
2022/04/22 03:25:36;;;;;;;16.58;10.45;;;;;;;9.02;70.01;100746.72;5031860;28;20128;-82
2022/04/22 03:28:05;;;;;;;16.90;10.43;;;;;;;9.00;69.69;100754.69;5032867;28;20076;-82
2022/04/22 03:30:34;;;;;;;15.73;9.75;;;;;;;9.01;70.35;100756.44;5014938;28;20421;-82
2022/04/22 03:33:02;;;;;;;15.40;10.45;;;;;;;8.98;69.71;100748.56;5031566;28;20083;-82
2022/04/22 03:35:28;;;;;;;19.48;10.15;;;;;;;8.96;70.42;100749.50;5015433;28;20504;-81
2022/04/22 03:37:54;;;;;;;16.58;10.25;;;;;;;8.94;70.95;100752.13;5027867;28;20160;-81
2022/04/22 03:40:20;;;;;;;17.92;10.07;;;;;;;8.91;70.10;100752.19;5051499;28;20124;-81
2022/04/22 03:42:46;;;;;;;15.82;9.95;;;;;;;8.90;70.29;100744.28;5032826;28;20120;-81
2022/04/22 03:45:11;;;;;;;16.45;10.30;;;;;;;8.86;70.60;100734.69;5040460;28;20112;-81
2022/04/22 03:47:38;;;;;;;15.18;9.02;;;;;;;8.85;70.96;100739.06;5032450;28;20179;-81
2022/04/22 03:50:04;;;;;;;16.63;10.27;;;;;;;8.82;70.68;100736.50;4998233;28;20620;-81
2022/04/22 03:52:29;;;;;;;14.70;10.10;;;;;;;8.80;70.61;100736.53;4997313;28;20069;-81
2022/04/22 03:54:55;;;;;;;14.45;10.45;;;;;;;8.77;71.05;100731.28;4998004;28;20540;-81
2022/04/22 04:00:05;;;;;;;15.77;10.10;;;;;;;8.75;71.00;100732.22;5050981;28;20121;-81
2022/04/22 04:02:31;;;;;;;13.50;10.18;;;;;;;8.74;70.55;100730.47;5050622;28;20057;-81
2022/04/22 04:04:56;;;;;;;12.85;9.65;;;;;;;8.72;71.07;100725.22;5052044;28;20048;-81
2022/04/22 04:07:22;;;;;;;15.25;10.77;;;;;;;8.70;71.53;100726.13;5051936;28;20121;-81
2022/04/22 04:17:59;;;;;;;15.32;10.10;;;;;;;8.63;71.84;100732.41;5049246;28;20100;-82
2022/04/22 04:23:14;;;;;;;16.23;10.32;;;;;;;8.59;72.07;100727.19;5049512;28;20357;-82
2022/04/22 04:25:40;;;;;;;;;;;;;;;8.66;70.17;100727.97;5047797;28;20131;-82
2022/04/22 04:28:09;;;;;;;16.38;10.90;;;;;;;8.59;72.17;100721.03;5038256;28;19996;-82
2022/04/22 04:30:39;;;;;;;13.85;9.98;;;;;;;8.58;71.76;100727.19;5033454;28;20453;-82
2022/04/22 04:33:06;;;;;;;16.60;10.40;;;;;;;8.59;73.22;100726.31;5051148;28;20109;-82
2022/04/22 04:35:31;;;;;;;17.17;10.23;;;;;;;8.56;73.26;100721.97;5017000;28;20036;-82
2022/04/22 04:37:57;;;;;;;14.13;9.80;;;;;;;8.58;73.42;100721.91;5051202;28;20040;-82
2022/04/22 04:40:23;;;;;;;17.15;9.85;;;;;;;8.54;73.34;100713.19;5051301;28;20025;-82
2022/04/22 04:42:52;;;;;;;19.40;10.07;;;;;;;8.55;73.26;100722.84;5033298;28;20480;-81
2022/04/22 04:45:18;;;;;;;20.00;9.35;;;;;;;8.55;73.12;100716.69;5036404;28;20045;-82
2022/04/22 04:47:43;;;;;;;16.58;10.85;;;;;;;8.55;74.28;100717.56;4997356;28;20405;-82
2022/04/22 04:50:10;;;;;;;22.23;10.88;;;;;;;8.56;73.75;100721.09;5031471;28;20041;-82
2022/04/22 04:52:39;;;;;;;17.25;9.60;;;;;;;8.55;73.98;100725.47;5042212;28;20037;-81
2022/04/22 04:55:07;;;;;;;16.23;10.25;;;;;;;8.54;75.22;100729.03;5069193;28;20036;-82
2022/04/22 04:57:33;;;;;;;15.50;10.20;;;;;;;8.51;74.78;100726.44;5033654;28;20209;-82
2022/04/22 04:59:58;;;;;;;17.02;10.60;;;;;;;8.54;74.77;100725.50;5033314;28;20467;-82
2022/04/22 05:02:24;;;;;;;18.55;10.80;;;;;;;8.54;75.06;100722.88;5033040;28;20033;-82
2022/04/22 05:04:49;;;;;;;21.17;11.13;;;;;;;8.55;76.07;100720.19;5049967;28;20048;-82
2022/04/22 05:07:15;;;;;;;17.92;10.63;;;;;;;8.59;75.66;100718.41;5050719;28;20060;-82
2022/04/22 05:09:40;;;;;;;15.98;10.48;;;;;;;8.56;76.06;100718.44;5051135;28;20167;-82
2022/04/22 05:12:06;;;;;;;14.65;10.23;;;;;;;8.60;75.69;100726.31;5050037;28;20041;-82
2022/04/22 05:14:32;;;;;;;16.27;10.48;;;;;;;8.61;75.58;100727.16;5016927;28;20040;-82
2022/04/22 05:16:57;;;;;;;18.02;11.98;;;;;;;8.64;76.63;100721.84;5049939;28;20048;-82
2022/04/22 05:19:23;;;;;;;19.92;11.32;;;;;;;8.65;76.32;100722.69;5051407;28;20033;-82
2022/04/22 05:21:49;;;;;;;17.77;11.93;;;;;;;8.70;76.23;100729.63;5049947;28;20029;-82
2022/04/22 05:24:15;;;;;;;19.63;12.85;;;;;;;8.74;76.71;100730.47;5052536;28;20483;-82
2022/04/22 05:26:41;;;;;;;16.27;12.00;;;;;;;8.72;76.46;100722.56;5028036;28;20121;-82
2022/04/22 05:32:36;;;;;;;24.08;12.02;;;;;;;8.78;77.00;100721.63;5017519;28;20132;-82
2022/04/22 05:34:36;;;;;;;16.92;12.73;;;;;;;8.86;77.17;100717.06;5033839;28;20349;-82
2022/04/22 05:37:02;;;;;;;21.10;12.73;;;;;;;8.92;77.18;100721.38;5033733;28;20068;-82
2022/04/22 05:39:28;;;;;;;22.77;13.27;;;;;;;8.94;77.49;100731.00;5033182;28;20116;-82
2022/04/22 05:41:54;;;;;;;20.27;13.40;;;;;;;8.99;77.13;100726.53;5016894;28;20441;-82
2022/04/22 05:44:19;;;;;;;20.02;14.13;;;;;;;9.02;77.31;100718.53;5047063;28;20120;-82
2022/04/22 05:46:45;;;;;;;19.15;14.30;;;;;;;9.02;77.87;100717.66;5020153;28;20041;-82
2022/04/22 05:49:10;;;;;;;19.98;14.48;;;;;;;9.10;77.27;100722.81;5053467;28;20040;-82
2022/04/22 05:51:36;;;;;;;26.05;13.23;;;;;;;9.13;77.01;100720.16;5052819;28;20037;-82
2022/04/22 05:54:01;;;;;;;21.83;14.35;;;;;;;9.15;77.47;100729.78;5036795;28;20068;-83
2022/04/22 05:56:27;;;;;;;20.88;13.45;;;;;;;9.20;77.22;100730.56;5041075;28;20140;-83
2022/04/22 05:58:52;;;;;;;23.88;14.52;;;;;;;9.26;77.70;100726.94;5016838;28;20034;-83
2022/04/22 06:01:18;;;;;;;19.40;13.65;;;;;;;9.37;77.69;100732.00;5016994;28;20051;-83
2022/04/22 06:03:43;;;;;;;19.52;14.07;;;;;;;9.48;77.75;100735.34;5000440;28;20045;-83
2022/04/22 06:06:09;;;;;;;24.48;15.02;;;;;;;9.58;77.68;100731.63;5034549;28;20084;-83
2022/04/22 06:11:18;;;;;;;22.02;14.52;;;;;;;9.77;77.08;100731.28;5018979;28;20064;-83
2022/04/22 06:13:46;;;;;;;18.92;14.75;;;;;;;9.86;76.16;100725.75;5016474;28;20479;-83
2022/04/22 06:16:12;;;;;;;21.00;14.15;;;;;;;9.89;76.02;100729.25;5016576;28;20132;-84
2022/04/22 06:18:37;;;;;;;22.88;14.45;;;;;;;9.96;75.61;100723.81;5033006;28;20035;-84
2022/04/22 06:21:03;;;;;;;21.33;13.95;;;;;;;10.00;75.87;100729.00;5000266;28;20037;-83
2022/04/22 06:23:28;;;;;;;22.73;14.35;;;;;;;10.07;75.84;100727.09;5016623;28;20536;-84
2022/04/22 06:25:54;;;;;;;21.00;14.73;;;;;;;10.09;75.52;100723.53;5033820;28;20090;-84
2022/04/22 06:28:19;;;;;;;20.52;13.73;;;;;;;10.16;75.55;100721.59;5028764;28;20503;-83
2022/04/22 06:30:46;;;;;;;21.92;13.68;;;;;;;10.22;74.20;100721.47;5033917;28;20041;-83
2022/04/22 06:33:13;;;;;;;19.90;14.00;;;;;;;10.29;75.03;100716.94;5031958;28;20033;-82
2022/04/22 06:35:38;;;;;;;19.42;14.48;;;;;;;10.38;74.79;100726.44;5014359;28;20037;-83
2022/04/22 06:38:07;;;;;;;18.77;14.38;;;;;;;10.41;74.64;100715.78;5031856;28;20420;-83
2022/04/22 06:46:01;;;;;;;24.38;15.02;;;;;;;10.66;73.95;100714.31;5025971;28;20053;-82
2022/04/22 06:48:33;;;;;;;18.70;13.23;;;;;;;10.73;73.79;100715.00;5034533;28;20040;-81
2022/04/22 06:51:00;;;;;;;19.98;13.77;;;;;;;10.77;73.41;100717.56;5039171;28;20107;-82
2022/04/22 06:53:27;;;;;;;20.08;13.02;;;;;;;10.79;71.61;100714.88;5031501;28;20113;-81
2022/04/22 06:55:54;;;;;;;17.33;13.15;;;;;;;10.88;72.52;100719.06;5015048;28;20076;-82
2022/04/22 06:58:20;;;;;;;22.33;14.52;;;;;;;10.95;72.87;100718.00;5014620;28;20087;-83
2022/04/22 07:00:47;;;;;;;22.73;13.48;;;;;;;11.01;72.67;100717.84;5014976;28;20045;-83
2022/04/22 07:03:14;;;;;;;19.55;13.88;;;;;;;11.08;72.08;100716.78;5032738;28;20030;-83
2022/04/22 07:05:42;;;;;;;20.15;13.02;;;;;;;11.12;71.61;100720.22;5031347;28;20068;-83
2022/04/22 07:08:13;;;;;;;21.13;13.68;;;;;;;11.19;71.46;100725.31;5031636;28;20048;-83
2022/04/22 07:10:42;;;;;;;19.70;13.68;;;;;;;11.26;71.22;100722.53;4999555;28;20150;-83
2022/04/22 07:13:08;;;;;;;17.67;13.68;;;;;;;11.36;71.18;100716.91;5015677;28;20045;-82
2022/04/22 07:15:34;;;;;;;17.02;13.20;;;;;;;11.48;71.27;100718.38;5032220;28;20406;-83
2022/04/22 07:18:01;;;;;;;19.67;13.50;;;;;;;11.56;70.07;100715.50;5015778;28;20138;-83
2022/04/22 07:20:27;;;;;;;20.33;14.32;;;;;;;11.66;70.67;100721.41;5032052;28;20049;-83
2022/04/22 07:22:53;;;;;;;18.25;14.02;;;;;;;11.69;70.08;100716.03;5015138;28;20154;-83
2022/04/22 07:25:20;;;;;;;19.70;13.50;;;;;;;11.72;69.34;100710.63;5032000;28;20049;-83
2022/04/22 07:27:47;;;;;;;18.35;13.88;;;;;;;11.76;69.50;100712.28;5030950;28;20064;-83
2022/04/22 07:30:15;;;;;;;19.15;14.25;;;;;;;11.83;69.25;100696.13;5031147;28;20479;-82
2022/04/22 07:32:41;;;;;;;17.83;13.43;;;;;;;11.91;68.56;100703.03;5024535;28;20070;-83
2022/04/22 07:35:13;;;;;;;18.27;14.05;;;;;;;12.03;68.75;100695.56;5034245;28;20075;-82
2022/04/22 07:37:47;;;;;;;18.85;13.60;;;;;;;12.21;68.26;100690.63;5030088;28;20623;-83
2022/04/22 07:40:15;;;;;;;24.83;13.07;;;;;;;12.35;67.18;100688.41;5025038;28;20048;-83
2022/04/22 07:46:46;;;;;;;18.60;11.85;;;;;;;12.48;67.07;100689.75;5036318;28;20120;-83
2022/04/22 07:48:12;;;;;;;20.48;13.05;;;;;;;12.72;65.89;100687.22;5032189;28;20041;-83
2022/04/22 07:50:37;;;;;;;28.88;13.13;;;;;;;12.88;65.53;100685.81;5014133;28;20028;-84
2022/04/22 07:53:03;;;;;;;17.15;12.38;;;;;;;12.95;65.06;100689.09;4982822;28;20072;-83
2022/04/22 07:55:29;;;;;;;15.50;12.23;;;;;;;13.02;64.71;100695.94;5028455;28;20073;-83
2022/04/22 07:57:56;;;;;;;18.77;11.68;;;;;;;13.00;63.44;100697.78;5030162;28;20049;-83
2022/04/22 08:00:22;;;;;;;17.98;12.20;;;;;;;12.87;64.33;100689.34;5013948;28;20481;-84
2022/04/22 08:02:48;;;;;;;16.20;12.25;;;;;;;12.86;64.52;100697.41;5030579;28;20167;-82
2022/04/22 08:05:13;;;;;;;17.48;11.65;;;;;;;12.85;64.67;100695.66;4997727;28;20389;-83
2022/04/22 08:07:40;;;;;;;16.02;12.93;;;;;;;12.89;64.18;100697.28;4997518;28;20053;-83
2022/04/22 08:10:06;;;;;;;17.15;11.88;;;;;;;12.94;64.89;100691.81;5014009;28;20073;-83
2022/04/22 08:12:33;;;;;;;16.10;12.18;;;;;;;12.97;64.90;100687.25;5013680;28;20506;-81
2022/04/22 08:15:00;;;;;;;16.40;11.63;;;;;;;13.03;64.83;100684.41;5030553;28;20474;-80
2022/04/22 08:17:26;;;;;;;15.57;12.63;;;;;;;13.06;64.54;100686.09;5021057;28;20146;-81
2022/04/22 08:19:51;;;;;;;15.68;11.90;;;;;;;13.03;63.97;100689.72;5047168;28;20060;-80
2022/04/22 08:22:18;;;;;;;15.93;12.32;;;;;;;13.04;64.13;100691.44;5029502;28;20033;-80
2022/04/22 08:24:43;;;;;;;20.05;13.25;;;;;;;13.05;64.40;100687.84;5029093;28;20076;-80
2022/04/22 08:27:10;;;;;;;22.70;11.75;;;;;;;13.05;64.10;100679.88;5043846;28;20116;-80
2022/04/22 08:29:37;;;;;;;17.05;12.68;;;;;;;13.04;63.66;100685.28;5032115;28;20049;-81
2022/04/22 08:32:04;;;;;;;14.55;11.63;;;;;;;13.07;63.49;100669.19;5036564;28;20041;-81
2022/04/22 08:34:29;;;;;;;14.18;12.10;;;;;;;13.14;63.48;100676.03;5049509;28;20040;-81
2022/04/22 08:36:55;;;;;;;16.83;12.30;;;;;;;13.20;63.66;100669.63;5049528;28;20048;-81
2022/04/22 08:39:20;;;;;;;14.10;11.68;;;;;;;13.30;63.55;100679.06;5049527;28;20120;-81
2022/04/22 08:41:48;;;;;;;16.00;12.40;;;;;;;13.38;62.48;100676.13;5046325;28;20042;-81
2022/04/22 08:44:14;;;;;;;14.57;11.60;;;;;;;13.50;62.28;100673.00;5030988;28;20404;-80
2022/04/22 08:52:11;;;;;;;18.35;12.60;;;;;;;14.09;61.06;100661.03;5015515;28;20049;-81
2022/04/22 08:54:42;;;;;;;19.13;12.60;;;;;;;14.22;60.77;100662.28;5015899;28;20044;-81
2022/04/22 08:57:07;;;;;;;16.38;11.25;;;;;;;14.30;59.54;100654.00;5046450;28;20053;-81
2022/04/22 08:59:33;;;;;;;14.57;11.15;;;;;;;14.43;59.23;100643.69;5039719;28;20370;-81
2022/04/22 09:01:58;;;;;;;14.25;11.07;;;;;;;14.52;59.79;100651.31;5036053;28;20069;-81
2022/04/22 09:04:26;;;;;;;15.40;11.48;;;;;;;14.52;59.12;100654.84;5037596;28;20045;-81
2022/04/22 09:06:52;;;;;;;15.13;11.30;;;;;;;14.45;58.59;100664.03;5036264;28;20132;-81
2022/04/22 09:09:18;;;;;;;18.45;12.70;;;;;;;14.33;59.15;100661.84;5019289;28;20157;-81
2022/04/22 09:11:45;;;;;;;15.40;11.48;;;;;;;14.40;58.50;100647.34;5035885;28;20052;-81
2022/04/22 09:14:20;;;;;;;15.43;12.02;;;;;;;14.65;57.71;100647.25;5036684;28;20441;-81
2022/04/22 09:16:47;;;;;;;16.17;12.30;;;;;;;14.94;57.53;100642.50;5040673;28;20238;-81
2022/04/22 09:19:12;;;;;;;16.25;12.13;;;;;;;15.05;57.25;100633.06;5041140;28;20037;-81
2022/04/22 09:21:38;;;;;;;14.23;11.55;;;;;;;15.10;56.91;100630.19;5048918;28;20040;-81
2022/04/22 09:24:13;;;;;;;14.13;11.07;;;;;;;15.18;56.69;100633.41;5048459;28;20043;-81
2022/04/22 09:26:39;;;;;;;14.73;11.13;;;;;;;15.21;56.00;100627.94;5039868;28;20033;-81
2022/04/22 09:29:06;;;;;;;14.32;9.82;;;;;;;15.25;55.70;100629.50;5029194;28;20122;-81
2022/04/22 09:31:47;;;;;;;15.40;11.07;;;;;;;15.40;56.33;100622.63;5051199;28;20028;-82
2022/04/22 09:34:13;;;;;;;14.02;10.15;;;;;;;15.52;54.58;100617.69;5017743;28;20041;-82
2022/04/22 09:45:08;;;;;;;12.38;9.52;;;;;;;15.71;53.39;100601.72;5035667;28;20064;-82
2022/04/22 09:47:38;;;;;;;12.48;9.15;;;;;;;15.76;53.35;100605.03;5037124;28;20098;-82
2022/04/22 09:50:08;;;;;;;11.95;9.70;;;;;;;15.89;52.68;100598.16;5036960;28;20033;-82
2022/04/22 09:52:38;;;;;;;12.30;9.93;;;;;;;15.92;52.54;100590.00;5002875;28;20073;-82
2022/04/22 09:55:08;;;;;;;11.82;9.45;;;;;;;15.92;52.84;100600.69;5036381;28;20080;-82
2022/04/22 09:57:54;;;;;;;12.10;9.45;;;;;;;15.85;52.39;100593.91;5055132;28;20076;-82
2022/04/22 10:00:27;;;;;;;12.10;9.10;;;;;;;15.84;51.76;100586.84;5050114;28;20030;-81
2022/04/22 10:02:55;;;;;;;12.13;8.32;;;;;;;16.06;50.61;100573.31;5034536;28;20338;-81
2022/04/22 10:05:26;;;;;;;13.80;9.20;;;;;;;16.07;50.68;100575.91;5035959;28;20033;-81
2022/04/22 10:07:56;;;;;;;15.98;9.38;;;;;;;16.07;50.71;100577.69;5018088;28;20132;-82
2022/04/22 10:10:30;;;;;;;12.57;7.97;;;;;;;16.22;50.33;100581.44;5034159;28;20087;-81
2022/04/22 10:12:58;;;;;;;11.88;8.20;;;;;;;16.27;49.30;100574.03;5032433;28;20137;-81
2022/04/22 10:15:28;;;;;;;12.52;8.48;;;;;;;16.24;49.00;100576.88;5032595;28;20393;-81
2022/04/22 10:17:54;;;;;;;11.30;8.15;;;;;;;16.31;48.63;100575.63;5032489;28;20055;-81
2022/04/22 10:20:20;;;;;;;10.27;8.00;;;;;;;16.28;48.80;100570.44;5033705;28;20030;-81
2022/04/22 10:22:49;;;;;;;11.02;9.07;;;;;;;16.25;48.96;100571.47;5033753;28;20140;-82
2022/04/22 10:25:15;;;;;;;11.15;8.35;;;;;;;16.16;48.53;100566.56;5032390;28;20030;-82
2022/04/22 10:27:42;;;;;;;14.73;8.77;;;;;;;16.06;48.59;100567.97;5030283;28;20120;-81
2022/04/22 10:30:11;;;;;;;12.48;9.23;;;;;;;16.06;49.21;100565.31;5016417;28;20037;-81
2022/04/22 10:32:40;;;;;;;12.52;8.70;;;;;;;16.08;49.31;100563.44;5042328;28;20048;-81
2022/04/22 10:35:07;;;;;;;15.90;8.35;;;;;;;16.02;48.90;100571.72;5052084;28;20116;-81
2022/04/22 10:37:34;;;;;;;14.60;8.43;;;;;;;15.90;48.86;100574.06;5053096;28;20044;-81
2022/04/22 10:40:01;;;;;;;11.40;8.77;;;;;;;15.76;49.40;100565.84;5052138;28;20045;-81
2022/04/22 10:42:35;;;;;;;15.82;9.07;;;;;;;15.66;49.96;100568.06;5051927;28;20143;-81
2022/04/22 10:47:48;;;;;;;13.70;9.27;;;;;;;15.34;51.72;100571.38;5031925;28;20028;-81
2022/04/22 10:50:25;;;;;;;15.48;9.40;;;;;;;15.22;50.94;100557.63;5033318;28;20061;-81
2022/04/22 10:53:02;;;;;;;13.88;9.98;;;;;;;15.14;51.13;100570.47;5031779;28;20156;-81
2022/04/22 10:55:36;;;;;;;13.02;9.60;;;;;;;15.16;51.50;100565.06;5037053;28;20033;-81
2022/04/22 10:58:13;;;;;;;10.77;9.07;;;;;;;15.22;51.15;100565.63;5052841;28;20052;-81
2022/04/22 11:00:44;;;;;;;13.85;9.48;;;;;;;15.16;50.96;100570.41;5051652;28;20033;-81
2022/04/22 11:03:15;;;;;;;12.60;9.48;;;;;;;15.14;51.56;100570.47;5051432;28;20037;-81
2022/04/22 11:06:01;;;;;;;17.13;9.75;;;;;;;15.12;52.27;100564.31;5051750;28;20104;-81
2022/04/22 11:08:32;;;;;;;15.60;10.55;;;;;;;15.10;52.42;100568.00;5034599;28;20067;-81
2022/04/22 11:11:00;;;;;;;;;;;;;;;15.17;51.86;100559.66;5051947;28;20041;-81
2022/04/22 11:13:40;;;;;;;15.13;9.75;;;;;;;15.10;52.16;100565.34;5052577;28;19909;-81
2022/04/22 11:16:11;;;;;;;13.35;10.30;;;;;;;15.02;52.17;100565.69;5052750;28;20048;-81
2022/04/22 11:18:42;;;;;;;16.50;10.05;;;;;;;14.99;52.68;100560.50;5051341;28;20129;-81
2022/04/22 11:21:15;;;;;;;;;;;;;;;15.08;52.36;100557.38;5052613;28;20404;-81
2022/04/22 11:23:44;;;;;;;16.63;10.68;;;;;;;15.04;52.38;100563.81;5052472;28;19912;-81
2022/04/22 11:26:15;;;;;;;12.80;9.93;;;;;;;15.10;52.54;100549.31;5030605;28;20063;-81
2022/04/22 11:28:42;;;;;;;13.25;9.88;;;;;;;15.16;52.10;100546.41;5042676;28;20398;-81
2022/04/22 11:31:10;;;;;;;15.98;10.10;;;;;;;15.16;52.17;100546.41;5051165;28;20025;-81
2022/04/22 11:33:52;;;;;;;16.58;10.13;;;;;;;15.16;52.38;100549.94;5032270;28;20083;-81
2022/04/22 11:36:17;;;;;;;19.70;9.75;;;;;;;15.12;52.94;100548.31;5032408;28;20044;-81
2022/04/22 11:38:56;;;;;;;19.08;10.25;;;;;;;15.13;53.19;100563.38;5030964;28;20029;-81
2022/04/22 11:41:22;;;;;;;14.50;9.80;;;;;;;15.16;52.91;100551.75;5031053;28;20029;-81
2022/04/22 11:43:48;;;;;;;17.35;10.00;;;;;;;15.11;53.01;100551.94;5033152;28;20374;-81
2022/04/22 11:46:17;;;;;;;15.90;9.65;;;;;;;15.10;53.25;100562.66;5050954;28;20033;-81
2022/04/22 11:48:45;;;;;;;19.45;9.30;;;;;;;15.13;53.28;100547.38;5050565;28;20041;-81
2022/04/22 11:51:11;;;;;;;16.50;9.05;;;;;;;15.19;53.04;100557.78;5050497;28;20259;-81
2022/04/22 11:53:37;;;;;;;15.80;9.88;;;;;;;15.24;52.98;100549.56;5050616;28;20033;-81
2022/04/22 11:56:04;;;;;;;14.23;9.73;;;;;;;15.30;52.68;100538.59;5041588;28;20394;-82
2022/04/22 11:58:32;;;;;;;14.60;9.30;;;;;;;15.41;53.14;100540.78;5030598;28;20033;-81
2022/04/22 12:06:31;;;;;;;11.93;8.23;;;;;;;15.63;50.55;100528.16;5030640;28;20045;-81
2022/04/22 12:09:03;;;;;;;10.70;8.38;;;;;;;15.65;50.16;100525.41;5014098;28;20393;-81
2022/04/22 12:11:29;;;;;;;14.65;8.10;;;;;;;15.58;50.03;100518.63;5030549;28;20041;-81
2022/04/22 12:13:56;;;;;;;16.17;8.52;;;;;;;15.56;50.14;100520.53;5030210;28;20068;-81
2022/04/22 12:16:27;;;;;;;12.30;8.93;;;;;;;15.52;50.78;100516.25;5030454;28;20042;-81
2022/04/22 12:18:54;;;;;;;11.85;8.63;;;;;;;15.52;50.44;100510.94;5031488;28;20063;-81
2022/04/22 12:21:21;;;;;;;12.35;7.97;;;;;;;15.60;50.41;100517.66;5030450;28;20481;-81